Aviation Digital Data Service (ADDS)

Output produced by METARs form (0901 UTC 20 October 2017)
found at http://www.aviationweather.gov/adds/metars/
 
KAGC 200853Z 25007KT 10SM CLR 12/07 A3021 RMK AO2 SLP232 T01220072 53004
KAGC 200753Z 25006KT 10SM CLR 13/07 A3020 RMK AO2 SLP227 T01330072
KAGC 200653Z 24007KT 10SM CLR 13/07 A3019 RMK AO2 SLP225 T01330072
KAGC 200553Z 23006KT 10SM CLR 14/07 A3020 RMK AO2 SLP228 T01390067 10172 20139 53006
KAGC 200453Z 24007KT 10SM CLR 15/07 A3019 RMK AO2 SLP226 T01500067 402060072
KAGC 200353Z 23009KT 10SM CLR 15/06 A3019 RMK AO2 SLP224 T01500061
KAGC 200253Z 22010KT 10SM CLR 16/06 A3018 RMK AO2 SLP223 T01560061 51004
KAGC 200153Z 21009KT 10SM CLR 16/06 A3018 RMK AO2 SLP224 T01610061
KAGC 200053Z 22008KT 10SM CLR 17/06 A3018 RMK AO2 SLP225 T01670061
KAGC 192353Z 21009KT 10SM CLR 17/06 A3017 RMK AO2 SLP222 T01720061 10206 20172 53006
KAGC 192253Z 22007KT 10SM CLR 18/06 A3016 RMK AO2 SLP217 T01830056
KAGC 192153Z 23009KT 10SM CLR 20/06 A3015 RMK AO2 SLP212 T02000056
KAGC 192053Z 24011G20KT 10SM CLR 21/06 A3015 RMK AO2 SLP214 T02060056 56013
KAGC 191953Z 25010KT 10SM CLR 21/05 A3016 RMK AO2 SLP218 T02060050
KAGC 191853Z 22015G23KT 10SM CLR 21/05 A3016 RMK AO2 SLP218 T02060050
KAGC 191753Z 23012KT 10SM CLR 20/06 A3019 RMK AO2 SLP226 T02000056 10206 20083 58015
KAGC 191653Z 24009KT 10SM CLR 19/06 A3021 RMK AO2 SLP234 T01890061
KAGC 191553Z 20010KT 10SM CLR 17/06 A3023 RMK AO2 SLP241 T01720061
KAGC 191453Z 19008KT 10SM CLR 15/06 A3024 RMK AO2 SLP244 T01500061 51007
KAGC 191353Z 18012KT 10SM CLR 12/05 A3024 RMK AO2 SLP245 T01170050
KAGC 191253Z 18011KT 10SM CLR 09/04 A3022 RMK AO2 SLP239 T00940039
KAGC 191153Z 17009KT 10SM CLR 08/03 A3022 RMK AO2 SLP237 T00830033 10111 20072 51005
KAGC 191053Z 18009KT 10SM CLR 08/03 A3022 RMK AO2 SLP236 T00830028
KAGC 190953Z 18007KT 10SM CLR 09/02 A3021 RMK AO2 SLP234 T00890022